Ann Arbor Township, Michigan
Current Conditions -  °F | °C
As of 10:53 PM on Tuesday 21 Oct 2014 (Local Time) from KARB Reporting Station
Overcast Overcast  
Wind Chill: 38°   Ceiling: 2400
Heat Index: 44°   Visibility: 10mi
Dew Point: 34°   Wind: 12mph
Humidity: 68%   Direction: 20°NNE
Pressure: 30.22"   Gusts: NA
Location:  42.3281°N, 83.7037°W
Report Text: KARB 220253Z AUTO 02010KT 10SM OVC024 07/01 A3022 RMK AO2 SLP236 T00670011 51017
Loading
Personal Weather Stations






























Interactive Weather Map
Tropical Storm Tracking
New forecast layout! Learn more

10-Day Weather Forecast

Advertisements
Track Severe Weather on mobile